Time;durP1;ratioP1;P1;durP2;ratioP2;P2;SDS_P1;SDS_P2;PMS_P1;PMS_P2;Temp;Humidity;BMP_temperature;BMP_pressure;BME280_temperature;BME280_humidity;BME280_pressure;Samples;Min_cycle;Max_cycle;Signal;HPM_P1;HPM_P2
2022/07/27 00:00:51;;;;;;;3.38;2.58;;;;;;;;;;5027273;28;20028;-75
2022/07/27 00:03:17;;;;;;;4.18;2.80;;;;;;;;;;5022594;28;20034;-76
2022/07/27 00:05:43;;;;;;;3.58;2.55;;;;;;;;;;5025527;28;20047;-75
2022/07/27 00:08:09;;;;;;;3.20;2.50;;;;;;;;;;5023814;28;20475;-75
2022/07/27 00:10:36;;;;;;;3.42;2.60;;;;;;;;;;5021150;28;20038;-76
2022/07/27 00:13:03;;;;;;;6.57;2.78;;;;;;;;;;5024558;28;20506;-76
2022/07/27 00:15:29;;;;;;;3.95;2.60;;;;;;;;;;5026254;28;20434;-75
2022/07/27 00:17:59;;;;;;;4.68;3.20;;;;;;;;;;5026785;28;20462;-74
2022/07/27 00:20:25;;;;;;;3.78;3.00;;;;;;;;;;5024921;28;20343;-76
2022/07/27 00:22:51;;;;;;;4.30;2.75;;;;;;;;;;5026370;28;20096;-76
2022/07/27 00:25:17;;;;;;;5.03;2.80;;;;;;;;;;5018569;28;20030;-76
2022/07/27 00:27:43;;;;;;;4.13;2.75;;;;;;;;;;5017744;28;20038;-75
2022/07/27 00:30:10;;;;;;;4.90;3.00;;;;;;;;;;5022423;28;20056;-75
2022/07/27 00:32:36;;;;;;;4.35;2.90;;;;;;;;;;5024338;28;20050;-75
2022/07/27 00:35:02;;;;;;;5.45;2.80;;;;;;;;;;5027459;28;20041;-75
2022/07/27 00:37:28;;;;;;;4.53;2.78;;;;;;;;;;5027907;28;20025;-76
2022/07/27 00:39:55;;;;;;;5.80;2.75;;;;;;;;;;5030398;28;20367;-76
2022/07/27 00:42:26;;;;;;;4.15;2.80;;;;;;;;;;5028270;28;20021;-75
2022/07/27 00:44:52;;;;;;;6.05;2.97;;;;;;;;;;5028796;28;20716;-75
2022/07/27 00:47:19;;;;;;;3.63;2.75;;;;;;;;;;5028006;28;20332;-75
2022/07/27 00:49:45;;;;;;;4.18;2.80;;;;;;;;;;5028383;28;20025;-75
2022/07/27 00:52:11;;;;;;;5.10;2.53;;;;;;;;;;5031705;28;20032;-75
2022/07/27 00:54:37;;;;;;;5.35;2.78;;;;;;;;;;5037208;28;20059;-74
2022/07/27 00:57:03;;;;;;;4.22;2.80;;;;;;;;;;5035121;28;20688;-76
2022/07/27 00:59:29;;;;;;;6.22;2.75;;;;;;;;;;5047640;28;20262;-77
2022/07/27 01:01:55;;;;;;;3.72;2.97;;;;;;;;;;5026656;28;20509;-75
2022/07/27 01:04:21;;;;;;;3.83;2.72;;;;;;;;;;5030960;28;20029;-73
2022/07/27 01:06:47;;;;;;;4.85;2.63;;;;;;;;;;5028638;28;20403;-75
2022/07/27 01:11:58;;;;;;;6.30;4.03;;;;;;;;;;5029911;28;20095;-75
2022/07/27 01:14:24;;;;;;;5.70;2.70;;;;;;;;;;5030702;28;20033;-76
2022/07/27 01:16:50;;;;;;;4.60;3.08;;;;;;;;;;5030809;28;20080;-75
2022/07/27 01:19:17;;;;;;;3.28;2.80;;;;;;;;;;5024834;28;20029;-75
2022/07/27 01:21:43;;;;;;;3.33;2.38;;;;;;;;;;5027166;28;20565;-76
2022/07/27 01:24:09;;;;;;;4.53;2.88;;;;;;;;;;5027298;28;20025;-75
2022/07/27 01:26:37;;;;;;;6.22;2.95;;;;;;;;;;5027537;28;20155;-76
2022/07/27 01:29:03;;;;;;;3.67;2.70;;;;;;;;;;5029407;28;20559;-76
2022/07/27 01:31:29;;;;;;;4.68;3.33;;;;;;;;;;5029681;28;20064;-76
2022/07/27 01:33:56;;;;;;;4.10;2.70;;;;;;;;;;5029983;28;20029;-76
2022/07/27 01:36:22;;;;;;;3.30;2.55;;;;;;;;;;5028134;28;20021;-75
2022/07/27 01:38:48;;;;;;;3.92;2.97;;;;;;;;;;5023774;28;20175;-76
2022/07/27 01:41:14;;;;;;;4.15;2.50;;;;;;;;;;5024703;28;20148;-76
2022/07/27 01:43:40;;;;;;;5.25;3.25;;;;;;;;;;5025592;28;20024;-75
2022/07/27 01:46:06;;;;;;;4.55;2.95;;;;;;;;;;5026448;28;20040;-74
2022/07/27 01:48:32;;;;;;;3.63;2.97;;;;;;;;;;5027684;28;20026;-75
2022/07/27 01:50:58;;;;;;;3.03;2.72;;;;;;;;;;5026863;28;20106;-74
2022/07/27 01:53:24;;;;;;;6.13;2.83;;;;;;;;;;5023672;28;20522;-74
2022/07/27 01:55:50;;;;;;;3.03;2.70;;;;;;;;;;5027460;28;20199;-75
2022/07/27 01:58:17;;;;;;;5.22;2.83;;;;;;;;;;5025240;28;20038;-75
2022/07/27 02:00:43;;;;;;;4.07;2.90;;;;;;;;;;5029635;28;20033;-75
2022/07/27 02:03:10;;;;;;;3.55;2.80;;;;;;;;;;5026826;28;20029;-76
2022/07/27 02:05:37;;;;;;;5.07;3.72;;;;;;;;;;5029402;28;20108;-75
2022/07/27 02:08:05;;;;;;;3.20;2.80;;;;;;;;;;5027501;28;20430;-75
2022/07/27 02:10:31;;;;;;;3.92;2.78;;;;;;;;;;5028828;28;20108;-75
2022/07/27 02:12:57;;;;;;;3.83;2.80;;;;;;;;;;5021492;28;20025;-75
2022/07/27 02:15:25;;;;;;;3.70;2.47;;;;;;;;;;5018769;28;20025;-75
2022/07/27 02:17:51;;;;;;;4.43;3.00;;;;;;;;;;5029979;28;20036;-75
2022/07/27 02:20:19;;;;;;;3.70;2.83;;;;;;;;;;5026392;28;20030;-76
2022/07/27 02:22:45;;;;;;;5.47;2.80;;;;;;;;;;5026504;28;20424;-76
2022/07/27 02:25:12;;;;;;;4.82;2.75;;;;;;;;;;5022131;28;20434;-75
2022/07/27 02:27:39;;;;;;;3.88;3.28;;;;;;;;;;5023109;28;20033;-75
2022/07/27 02:30:06;;;;;;;4.63;2.75;;;;;;;;;;5026307;28;20480;-75
2022/07/27 02:32:32;;;;;;;3.70;2.50;;;;;;;;;;5023697;28;20053;-76
2022/07/27 02:34:58;;;;;;;3.35;2.65;;;;;;;;;;5026430;28;20033;-75
2022/07/27 02:37:24;;;;;;;3.65;2.80;;;;;;;;;;5022613;28;20105;-76
2022/07/27 02:39:51;;;;;;;3.25;2.55;;;;;;;;;;5025258;28;20393;-76
2022/07/27 02:42:18;;;;;;;4.18;2.67;;;;;;;;;;5024239;28;20021;-75
2022/07/27 02:44:44;;;;;;;6.07;2.97;;;;;;;;;;5027879;28;20503;-76
2022/07/27 02:47:10;;;;;;;5.28;2.78;;;;;;;;;;5027934;28;20049;-76
2022/07/27 02:49:37;;;;;;;3.95;2.95;;;;;;;;;;5026957;28;20053;-75
2022/07/27 02:52:04;;;;;;;6.18;2.88;;;;;;;;;;5024985;28;20470;-75
2022/07/27 02:54:31;;;;;;;4.78;2.88;;;;;;;;;;5026292;28;20132;-75
2022/07/27 02:56:57;;;;;;;3.90;2.85;;;;;;;;;;5026393;28;20022;-76
2022/07/27 02:59:24;;;;;;;4.82;2.78;;;;;;;;;;5026572;28;20071;-75
2022/07/27 03:01:50;;;;;;;4.00;2.80;;;;;;;;;;5021287;28;20029;-75
2022/07/27 03:04:16;;;;;;;6.47;3.17;;;;;;;;;;5028087;28;20096;-75
2022/07/27 03:06:42;;;;;;;5.10;2.80;;;;;;;;;;5025665;28;20030;-75
2022/07/27 03:09:08;;;;;;;5.45;3.10;;;;;;;;;;5027293;28;20072;-76
2022/07/27 03:11:34;;;;;;;3.40;2.67;;;;;;;;;;5026212;28;20034;-75
2022/07/27 03:14:01;;;;;;;4.00;2.65;;;;;;;;;;5026271;28;20033;-75
2022/07/27 03:16:27;;;;;;;4.53;3.17;;;;;;;;;;5025297;28;20034;-75
2022/07/27 03:18:53;;;;;;;6.35;3.13;;;;;;;;;;5027064;28;20462;-76
2022/07/27 03:21:19;;;;;;;6.00;3.10;;;;;;;;;;5026231;28;20029;-76
2022/07/27 03:23:45;;;;;;;5.28;2.80;;;;;;;;;;5027988;28;20045;-76
2022/07/27 03:26:11;;;;;;;4.45;2.92;;;;;;;;;;5024498;28;20525;-76
2022/07/27 03:28:37;;;;;;;5.07;3.03;;;;;;;;;;5027480;28;20040;-76
2022/07/27 03:31:03;;;;;;;4.80;3.13;;;;;;;;;;5026702;28;20424;-76
2022/07/27 03:33:29;;;;;;;4.70;3.00;;;;;;;;;;5018985;28;21189;-75
2022/07/27 03:35:56;;;;;;;4.97;2.90;;;;;;;;;;5019278;28;20104;-75
2022/07/27 03:38:22;;;;;;;4.20;3.33;;;;;;;;;;5027123;28;20108;-76
2022/07/27 03:40:48;;;;;;;4.97;3.00;;;;;;;;;;5022245;28;20541;-76
2022/07/27 03:43:14;;;;;;;5.75;3.20;;;;;;;;;;5028233;28;20029;-75
2022/07/27 03:45:40;;;;;;;4.18;2.80;;;;;;;;;;5018321;28;20038;-75
2022/07/27 03:48:07;;;;;;;3.20;2.67;;;;;;;;;;5020559;28;20507;-76
2022/07/27 03:50:33;;;;;;;3.70;3.08;;;;;;;;;;5020025;28;20116;-75
2022/07/27 03:52:59;;;;;;;7.32;2.95;;;;;;;;;;5025825;28;20494;-75
2022/07/27 03:55:25;;;;;;;3.65;2.80;;;;;;;;;;5025833;28;20033;-75
2022/07/27 03:57:51;;;;;;;4.75;3.30;;;;;;;;;;5023108;28;20036;-75
2022/07/27 04:00:17;;;;;;;5.40;3.63;;;;;;;;;;5027394;28;20026;-75
2022/07/27 04:02:44;;;;;;;3.88;3.00;;;;;;;;;;5025086;28;20026;-75
2022/07/27 04:05:10;;;;;;;3.80;3.22;;;;;;;;;;5028079;28;20589;-76
2022/07/27 04:07:37;;;;;;;5.88;3.60;;;;;;;;;;5026705;28;20104;-75
2022/07/27 04:10:03;;;;;;;5.60;3.45;;;;;;;;;;5022768;28;20021;-76
2022/07/27 04:12:29;;;;;;;4.72;3.25;;;;;;;;;;5024866;28;20859;-76
2022/07/27 04:14:55;;;;;;;4.68;3.28;;;;;;;;;;5024876;28;20533;-76
2022/07/27 04:17:21;;;;;;;5.55;3.25;;;;;;;;;;5020293;28;20037;-75
2022/07/27 04:19:47;;;;;;;5.43;3.13;;;;;;;;;;5027582;28;20033;-75
2022/07/27 04:22:13;;;;;;;5.32;3.47;;;;;;;;;;5028484;28;20491;-75
2022/07/27 04:24:40;;;;;;;4.05;3.60;;;;;;;;;;5025354;28;20099;-75
2022/07/27 04:27:06;;;;;;;4.72;3.03;;;;;;;;;;5028692;28;20029;-75
2022/07/27 04:29:32;;;;;;;4.13;3.17;;;;;;;;;;5025817;28;20017;-75
2022/07/27 04:31:58;;;;;;;5.40;3.30;;;;;;;;;;5027001;28;20049;-75
2022/07/27 04:34:24;;;;;;;5.35;3.70;;;;;;;;;;5022786;28;20616;-75
2022/07/27 04:36:50;;;;;;;5.00;3.85;;;;;;;;;;5026755;28;20078;-76
2022/07/27 04:39:16;;;;;;;4.55;3.53;;;;;;;;;;5025616;28;20033;-75
2022/07/27 04:41:42;;;;;;;4.50;3.70;;;;;;;;;;5027189;28;20068;-75
2022/07/27 04:44:08;;;;;;;6.45;4.10;;;;;;;;;;5024496;28;20030;-75
2022/07/27 04:46:34;;;;;;;5.82;3.42;;;;;;;;;;5027757;28;20144;-76
2022/07/27 04:49:00;;;;;;;3.70;3.10;;;;;;;;;;5026956;28;20633;-76
2022/07/27 04:51:26;;;;;;;4.25;3.20;;;;;;;;;;5023536;28;20034;-75
2022/07/27 04:53:52;;;;;;;3.45;3.00;;;;;;;;;;5036725;28;20017;-76
2022/07/27 04:56:19;;;;;;;5.05;3.50;;;;;;;;;;5041607;28;20033;-75
2022/07/27 04:58:45;;;;;;;4.70;3.10;;;;;;;;;;5037623;28;20021;-77
2022/07/27 05:01:11;;;;;;;9.60;3.42;;;;;;;;;;5027814;28;20073;-75
2022/07/27 05:03:38;;;;;;;4.50;3.50;;;;;;;;;;5027806;28;20018;-76
2022/07/27 05:06:04;;;;;;;3.78;3.40;;;;;;;;;;5024760;28;20014;-76
2022/07/27 05:08:30;;;;;;;5.07;3.28;;;;;;;;;;5026510;28;20072;-75
2022/07/27 05:10:56;;;;;;;6.28;4.53;;;;;;;;;;5028102;28;20487;-76
2022/07/27 05:13:22;;;;;;;5.22;3.40;;;;;;;;;;5026011;28;20251;-75
2022/07/27 05:15:48;;;;;;;4.47;3.60;;;;;;;;;;5027837;28;20037;-76
2022/07/27 05:18:15;;;;;;;3.85;3.45;;;;;;;;;;5027582;28;20052;-76
2022/07/27 05:20:41;;;;;;;6.10;3.85;;;;;;;;;;5026383;28;20522;-75
2022/07/27 05:23:07;;;;;;;7.32;3.60;;;;;;;;;;5027008;28;20566;-75
2022/07/27 05:25:33;;;;;;;4.78;3.70;;;;;;;;;;5025761;28;20049;-75
2022/07/27 05:27:59;;;;;;;5.07;3.50;;;;;;;;;;5026556;28;20563;-76
2022/07/27 05:30:25;;;;;;;4.00;3.58;;;;;;;;;;5029364;28;20116;-76
2022/07/27 05:32:52;;;;;;;3.72;3.17;;;;;;;;;;5023748;28;20026;-75
2022/07/27 05:35:19;;;;;;;4.45;3.70;;;;;;;;;;5026667;28;20411;-76
2022/07/27 05:37:45;;;;;;;7.60;3.85;;;;;;;;;;5030223;28;20029;-76
2022/07/27 05:40:11;;;;;;;6.30;3.40;;;;;;;;;;5031585;28;20033;-75
2022/07/27 05:42:38;;;;;;;4.30;3.13;;;;;;;;;;5030521;28;20029;-76
2022/07/27 05:45:04;;;;;;;5.30;3.55;;;;;;;;;;5030561;28;20029;-75
2022/07/27 05:47:30;;;;;;;5.25;3.55;;;;;;;;;;5031192;28;20021;-76
2022/07/27 05:49:56;;;;;;;5.85;3.30;;;;;;;;;;5033614;28;20068;-76
2022/07/27 05:52:22;;;;;;;5.50;3.85;;;;;;;;;;5032686;28;20021;-75
2022/07/27 05:54:48;;;;;;;9.68;4.18;;;;;;;;;;5032005;28;20036;-75
2022/07/27 05:57:14;;;;;;;5.90;4.03;;;;;;;;;;5028333;28;20456;-75
2022/07/27 05:59:41;;;;;;;6.28;3.40;;;;;;;;;;5028865;28;20032;-74
2022/07/27 06:02:07;;;;;;;3.70;3.08;;;;;;;;;;5027146;28;20163;-74
2022/07/27 06:04:34;;;;;;;4.85;3.35;;;;;;;;;;5029859;28;20022;-75
2022/07/27 06:09:45;;;;;;;5.90;3.75;;;;;;;;;;5033703;28;20053;-75
2022/07/27 06:12:11;;;;;;;4.40;3.42;;;;;;;;;;5035050;28;20032;-75
2022/07/27 06:14:37;;;;;;;3.42;3.00;;;;;;;;;;5033728;28;20124;-75
2022/07/27 06:17:04;;;;;;;5.05;2.97;;;;;;;;;;5034176;28;20030;-76
2022/07/27 06:19:31;;;;;;;7.72;3.42;;;;;;;;;;5024592;28;20033;-76
2022/07/27 06:21:57;;;;;;;6.68;3.65;;;;;;;;;;5023983;28;20092;-76
2022/07/27 06:24:23;;;;;;;5.40;3.25;;;;;;;;;;5027766;28;20450;-76
2022/07/27 06:26:49;;;;;;;4.35;3.20;;;;;;;;;;5027329;28;20096;-76
2022/07/27 06:29:15;;;;;;;4.53;3.13;;;;;;;;;;5028338;28;20687;-76
2022/07/27 06:31:41;;;;;;;4.78;3.70;;;;;;;;;;5024819;28;20060;-75
2022/07/27 06:34:08;;;;;;;4.45;3.63;;;;;;;;;;5025752;28;20061;-76
2022/07/27 06:36:34;;;;;;;5.78;3.55;;;;;;;;;;5027924;28;20036;-76
2022/07/27 06:39:00;;;;;;;4.15;3.17;;;;;;;;;;5027971;28;20323;-75
2022/07/27 06:41:26;;;;;;;4.15;3.30;;;;;;;;;;5023842;28;20021;-76
2022/07/27 06:43:52;;;;;;;5.22;3.60;;;;;;;;;;5027317;28;20024;-76
2022/07/27 06:46:18;;;;;;;5.72;3.53;;;;;;;;;;5027104;28;20032;-76
2022/07/27 06:48:44;;;;;;;4.53;3.10;;;;;;;;;;5021246;28;20021;-76
2022/07/27 06:51:10;;;;;;;9.02;4.00;;;;;;;;;;5026711;28;20031;-75
2022/07/27 06:53:36;;;;;;;7.60;3.70;;;;;;;;;;5027651;28;20032;-76
2022/07/27 06:56:03;;;;;;;6.28;4.13;;;;;;;;;;5026342;28;20468;-76
2022/07/27 06:58:32;;;;;;;5.70;3.53;;;;;;;;;;5026438;28;20424;-75
2022/07/27 07:01:00;;;;;;;5.60;4.05;;;;;;;;;;5025810;28;20044;-75
2022/07/27 07:03:27;;;;;;;6.30;4.55;;;;;;;;;;5027560;28;20049;-75
2022/07/27 07:05:53;;;;;;;11.10;4.72;;;;;;;;;;5027152;28;20049;-76
2022/07/27 07:08:20;;;;;;;6.90;3.70;;;;;;;;;;5028207;28;20707;-75
2022/07/27 07:10:46;;;;;;;6.32;3.72;;;;;;;;;;5026601;28;20025;-75
2022/07/27 07:13:13;;;;;;;5.80;3.90;;;;;;;;;;5030838;28;20400;-76
2022/07/27 07:15:39;;;;;;;9.35;3.55;;;;;;;;;;5033710;28;20040;-75
2022/07/27 07:18:06;;;;;;;5.45;4.00;;;;;;;;;;5030528;28;20029;-75
2022/07/27 07:20:33;;;;;;;6.53;3.63;;;;;;;;;;5020224;28;20565;-75
2022/07/27 07:22:59;;;;;;;5.72;3.60;;;;;;;;;;5029117;28;20560;-76
2022/07/27 07:25:26;;;;;;;5.03;3.10;;;;;;;;;;5028000;28;20029;-75
2022/07/27 07:27:53;;;;;;;5.45;4.03;;;;;;;;;;5029462;28;20018;-75
2022/07/27 07:30:19;;;;;;;5.85;3.15;;;;;;;;;;5024309;28;20026;-75
2022/07/27 07:32:45;;;;;;;4.63;2.90;;;;;;;;;;5028299;28;20061;-75
2022/07/27 07:35:11;;;;;;;5.43;2.95;;;;;;;;;;5027614;28;20567;-75
2022/07/27 07:37:37;;;;;;;4.40;2.92;;;;;;;;;;5027258;28;20033;-75
2022/07/27 07:40:04;;;;;;;3.95;2.80;;;;;;;;;;5027858;28;20041;-76
2022/07/27 07:42:31;;;;;;;6.65;3.00;;;;;;;;;;5036888;28;20048;-75
2022/07/27 07:44:57;;;;;;;5.25;3.03;;;;;;;;;;5039335;28;20025;-77
2022/07/27 07:47:23;;;;;;;3.38;2.40;;;;;;;;;;5026062;28;20018;-74
2022/07/27 07:49:50;;;;;;;3.05;2.30;;;;;;;;;;5026839;28;20025;-76
2022/07/27 07:52:16;;;;;;;6.28;3.15;;;;;;;;;;5027046;28;20076;-76
2022/07/27 07:54:42;;;;;;;4.47;2.70;;;;;;;;;;5025521;28;20030;-76
2022/07/27 07:57:08;;;;;;;3.30;2.92;;;;;;;;;;5027697;28;20029;-75
2022/07/27 07:59:34;;;;;;;2.90;2.10;;;;;;;;;;5025029;28;20024;-76
2022/07/27 08:02:02;;;;;;;5.72;2.30;;;;;;;;;;5023750;28;20022;-75
2022/07/27 08:04:28;;;;;;;4.90;2.30;;;;;;;;;;5026392;28;20023;-75
2022/07/27 08:06:54;;;;;;;2.80;2.13;;;;;;;;;;5027944;28;20021;-75
2022/07/27 08:09:25;;;;;;;2.65;2.10;;;;;;;;;;5026589;28;20021;-75
2022/07/27 08:11:51;;;;;;;3.95;2.00;;;;;;;;;;5026545;28;20030;-76
2022/07/27 08:14:17;;;;;;;2.47;1.83;;;;;;;;;;5027950;28;20080;-75
2022/07/27 08:16:43;;;;;;;7.38;2.20;;;;;;;;;;5027995;28;20025;-75
2022/07/27 08:19:09;;;;;;;4.32;2.42;;;;;;;;;;5021746;28;20487;-74
2022/07/27 08:21:35;;;;;;;2.25;2.00;;;;;;;;;;5028300;28;20091;-75
2022/07/27 08:24:02;;;;;;;3.28;1.90;;;;;;;;;;5027910;28;20462;-76
2022/07/27 08:26:28;;;;;;;2.55;1.98;;;;;;;;;;5028449;28;20013;-76
2022/07/27 08:28:54;;;;;;;3.78;1.90;;;;;;;;;;5028508;28;20041;-75
2022/07/27 08:31:20;;;;;;;2.20;2.00;;;;;;;;;;5027168;28;20643;-73
2022/07/27 08:33:46;;;;;;;2.78;1.73;;;;;;;;;;5028959;28;20029;-76
2022/07/27 08:36:12;;;;;;;5.97;2.13;;;;;;;;;;5022704;28;20495;-76
2022/07/27 08:38:38;;;;;;;4.65;2.10;;;;;;;;;;5027730;28;20159;-76
2022/07/27 08:41:06;;;;;;;3.03;2.35;;;;;;;;;;5025936;28;20022;-76
2022/07/27 08:43:32;;;;;;;3.92;2.17;;;;;;;;;;5026812;28;20082;-75
2022/07/27 08:46:00;;;;;;;3.13;2.10;;;;;;;;;;5024675;28;20032;-76
2022/07/27 08:48:27;;;;;;;3.75;2.00;;;;;;;;;;5025401;28;20049;-75
2022/07/27 08:50:54;;;;;;;2.08;1.83;;;;;;;;;;5023159;28;20544;-76
2022/07/27 08:53:20;;;;;;;6.07;2.30;;;;;;;;;;5024094;28;20106;-75
2022/07/27 08:55:47;;;;;;;3.35;1.80;;;;;;;;;;5033037;28;20036;-76
2022/07/27 08:58:14;;;;;;;2.70;2.15;;;;;;;;;;5030064;28;20033;-76
2022/07/27 09:00:41;;;;;;;2.33;1.77;;;;;;;;;;5022595;28;20471;-77
2022/07/27 09:03:11;;;;;;;2.92;2.20;;;;;;;;;;5027512;28;20026;-75
2022/07/27 09:05:43;;;;;;;2.97;1.85;;;;;;;;;;5028221;28;20052;-75
2022/07/27 09:08:11;;;;;;;2.70;2.10;;;;;;;;;;5024995;28;20390;-75
2022/07/27 09:10:37;;;;;;;4.47;2.17;;;;;;;;;;5030558;28;20025;-75
2022/07/27 09:13:16;;;;;;;3.92;2.05;;;;;;;;;;5031447;28;20017;-75
2022/07/27 09:15:46;;;;;;;6.32;2.33;;;;;;;;;;5029283;28;20037;-75
2022/07/27 09:18:19;;;;;;;2.70;1.90;;;;;;;;;;5028756;28;20029;-75
2022/07/27 09:20:45;;;;;;;3.17;1.98;;;;;;;;;;5027872;28;20021;-75
2022/07/27 09:23:12;;;;;;;5.22;2.05;;;;;;;;;;5024453;28;20448;-75
2022/07/27 09:25:40;;;;;;;2.60;2.03;;;;;;;;;;5030245;28;20618;-75
2022/07/27 09:28:07;;;;;;;4.88;1.88;;;;;;;;;;5032781;28;20270;-75
2022/07/27 09:30:33;;;;;;;3.22;1.88;;;;;;;;;;5028225;28;20044;-75
2022/07/27 09:33:00;;;;;;;2.20;1.63;;;;;;;;;;5031047;28;20543;-76
2022/07/27 09:35:32;;;;;;;3.95;2.00;;;;;;;;;;5032675;28;20022;-76
2022/07/27 09:38:17;;;;;;;3.67;2.10;;;;;;;;;;5028045;28;20508;-75
2022/07/27 09:40:45;;;;;;;2.38;1.77;;;;;;;;;;5023664;28;20029;-75
2022/07/27 09:43:12;;;;;;;3.60;1.88;;;;;;;;;;5024497;28;20418;-74
2022/07/27 09:45:42;;;;;;;5.35;2.05;;;;;;;;;;5030955;28;20022;-75
2022/07/27 09:48:11;;;;;;;2.53;1.80;;;;;;;;;;5030468;28;20491;-75
2022/07/27 09:50:40;;;;;;;4.30;1.80;;;;;;;;;;5029642;28;20115;-74
2022/07/27 09:53:23;;;;;;;3.70;1.90;;;;;;;;;;5026847;28;20567;-75
2022/07/27 09:56:08;;;;;;;1.88;1.70;;;;;;;;;;5028778;28;20021;-74
2022/07/27 09:58:39;;;;;;;2.83;1.90;;;;;;;;;;5027019;28;20479;-75
2022/07/27 10:01:06;;;;;;;6.35;1.98;;;;;;;;;;5029485;28;20036;-74
2022/07/27 10:03:32;;;;;;;2.60;1.80;;;;;;;;;;5030691;28;20380;-74
2022/07/27 10:05:58;;;;;;;4.10;1.70;;;;;;;;;;5023834;28;20079;-74
2022/07/27 10:08:24;;;;;;;3.22;2.10;;;;;;;;;;5026651;28;20108;-75
2022/07/27 10:10:51;;;;;;;3.95;1.85;;;;;;;;;;5034835;28;20044;-76
2022/07/27 10:13:17;;;;;;;4.63;1.80;;;;;;;;;;5029734;28;20033;-75
2022/07/27 10:15:44;;;;;;;3.97;2.00;;;;;;;;;;5027903;28;20021;-75
2022/07/27 10:18:16;;;;;;;3.33;1.60;;;;;;;;;;5029546;28;20032;-75
2022/07/27 10:20:44;;;;;;;2.85;1.70;;;;;;;;;;5028960;28;20423;-75
2022/07/27 10:23:24;;;;;;;2.70;2.40;;;;;;;;;;5021646;28;20518;-74
2022/07/27 10:26:10;;;;;;;4.82;1.70;;;;;;;;;;5037819;28;20022;-74
2022/07/27 10:28:48;;;;;;;2.35;1.80;;;;;;;;;;5031207;28;20088;-74
2022/07/27 10:31:16;;;;;;;2.78;1.90;;;;;;;;;;5031481;28;20073;-75
2022/07/27 10:33:42;;;;;;;2.85;2.10;;;;;;;;;;5029708;28;20017;-75
2022/07/27 10:36:28;;;;;;;2.28;1.98;;;;;;;;;;5026841;28;20042;-74
2022/07/27 10:38:55;;;;;;;4.63;2.35;;;;;;;;;;5024197;28;20093;-75
2022/07/27 10:41:22;;;;;;;2.42;1.80;;;;;;;;;;5023545;28;20029;-75
2022/07/27 10:43:52;;;;;;;5.30;2.03;;;;;;;;;;5029355;28;20498;-75
2022/07/27 10:46:21;;;;;;;2.33;1.88;;;;;;;;;;5023568;28;20100;-74
2022/07/27 10:48:47;;;;;;;2.47;1.85;;;;;;;;;;5029433;28;20073;-75
2022/07/27 10:51:15;;;;;;;4.22;2.10;;;;;;;;;;5029431;28;20082;-75
2022/07/27 10:53:42;;;;;;;3.20;2.15;;;;;;;;;;5028139;28;20018;-75
2022/07/27 10:56:09;;;;;;;2.67;1.95;;;;;;;;;;5027302;28;20041;-76
2022/07/27 10:58:35;;;;;;;3.20;2.17;;;;;;;;;;5029951;28;20228;-75
2022/07/27 11:01:02;;;;;;;3.85;2.00;;;;;;;;;;5022374;28;20491;-76
2022/07/27 11:03:32;;;;;;;2.20;1.92;;;;;;;;;;5031214;28;20095;-76
2022/07/27 11:06:07;;;;;;;2.75;2.00;;;;;;;;;;5025821;28;20021;-75
2022/07/27 11:08:37;;;;;;;2.92;1.70;;;;;;;;;;5025132;28;20045;-75
2022/07/27 11:11:04;;;;;;;4.43;2.20;;;;;;;;;;5027631;28;20034;-75
2022/07/27 11:13:31;;;;;;;2.58;1.80;;;;;;;;;;5026666;28;20017;-75
2022/07/27 11:16:01;;;;;;;1.95;1.80;;;;;;;;;;5024919;28;20033;-74
2022/07/27 11:18:28;;;;;;;2.60;2.22;;;;;;;;;;5026157;28;20034;-75
2022/07/27 11:21:14;;;;;;;3.28;2.08;;;;;;;;;;5028861;28;20076;-75
2022/07/27 11:23:42;;;;;;;3.47;2.10;;;;;;;;;;5030835;28;20009;-75
2022/07/27 11:26:12;;;;;;;4.57;2.08;;;;;;;;;;5035835;28;20030;-75
2022/07/27 11:28:40;;;;;;;3.78;2.55;;;;;;;;;;5034320;28;20044;-76
2022/07/27 11:31:07;;;;;;;5.45;2.40;;;;;;;;;;5011382;28;20077;-75
2022/07/27 11:33:33;;;;;;;3.30;2.40;;;;;;;;;;5025526;28;20053;-75
2022/07/27 11:36:04;;;;;;;3.20;2.50;;;;;;;;;;5026335;28;20530;-75
2022/07/27 11:38:44;;;;;;;4.32;2.35;;;;;;;;;;5023913;28;20083;-75
2022/07/27 11:41:12;;;;;;;4.43;2.08;;;;;;;;;;5025542;28;20104;-75
2022/07/27 11:43:38;;;;;;;3.20;2.10;;;;;;;;;;5031690;28;20022;-75
2022/07/27 11:46:11;;;;;;;3.65;1.70;;;;;;;;;;5026778;28;20589;-75
2022/07/27 11:48:37;;;;;;;3.65;1.90;;;;;;;;;;5026290;28;20033;-75
2022/07/27 11:51:04;;;;;;;4.40;2.08;;;;;;;;;;5025521;28;20510;-74
2022/07/27 11:53:31;;;;;;;6.72;1.80;;;;;;;;;;5021537;28;20123;-76
2022/07/27 11:55:57;;;;;;;3.70;1.70;;;;;;;;;;5026193;28;20029;-75
2022/07/27 11:58:23;;;;;;;3.33;2.00;;;;;;;;;;5025200;28;20037;-76
2022/07/27 12:00:49;;;;;;;3.55;2.15;;;;;;;;;;5025678;28;20033;-75
2022/07/27 12:03:22;;;;;;;2.75;2.03;;;;;;;;;;5019959;28;20029;-75
2022/07/27 12:05:55;;;;;;;2.20;1.98;;;;;;;;;;5024113;28;20033;-75
2022/07/27 12:08:22;;;;;;;3.55;1.90;;;;;;;;;;5025345;28;20036;-77
2022/07/27 12:10:58;;;;;;;3.55;1.77;;;;;;;;;;5026205;28;20034;-76
2022/07/27 12:13:32;;;;;;;4.68;1.90;;;;;;;;;;5031930;28;20092;-75
2022/07/27 12:15:58;;;;;;;2.17;1.60;;;;;;;;;;5026842;28;20499;-76
2022/07/27 12:18:24;;;;;;;4.35;2.00;;;;;;;;;;5025467;28;20041;-75
2022/07/27 12:20:50;;;;;;;1.85;1.75;;;;;;;;;;5038120;28;20041;-75
2022/07/27 12:23:17;;;;;;;2.67;2.13;;;;;;;;;;5029638;28;20024;-76
2022/07/27 12:25:44;;;;;;;2.58;1.85;;;;;;;;;;5027256;28;20017;-75
2022/07/27 12:28:12;;;;;;;2.47;2.03;;;;;;;;;;5023550;28;20041;-75
2022/07/27 12:30:43;;;;;;;4.40;2.05;;;;;;;;;;5026740;28;20075;-75
2022/07/27 12:33:24;;;;;;;3.47;1.77;;;;;;;;;;5020054;28;20387;-75
2022/07/27 12:35:51;;;;;;;3.90;2.00;;;;;;;;;;5029101;28;20036;-75
2022/07/27 12:38:17;;;;;;;2.95;1.70;;;;;;;;;;5031279;28;20037;-75
2022/07/27 12:40:45;;;;;;;4.03;1.70;;;;;;;;;;5024266;28;20035;-74
2022/07/27 12:43:14;;;;;;;2.03;1.80;;;;;;;;;;5026259;28;20463;-75
2022/07/27 12:45:40;;;;;;;4.38;1.95;;;;;;;;;;5024586;28;20026;-76
2022/07/27 12:48:07;;;;;;;3.63;2.00;;;;;;;;;;5024098;28;20550;-74
2022/07/27 12:50:33;;;;;;;4.40;1.90;;;;;;;;;;5034162;28;20025;-75
2022/07/27 12:53:00;;;;;;;3.75;1.80;;;;;;;;;;5044015;28;20018;-74
2022/07/27 12:55:26;;;;;;;3.83;2.00;;;;;;;;;;5041052;28;20375;-74
2022/07/27 12:57:52;;;;;;;4.25;1.80;;;;;;;;;;5035538;28;20044;-75
2022/07/27 13:00:19;;;;;;;2.83;1.90;;;;;;;;;;5030622;28;20113;-75
2022/07/27 13:02:45;;;;;;;3.30;1.77;;;;;;;;;;5033653;28;20100;-74
2022/07/27 13:05:12;;;;;;;3.50;1.80;;;;;;;;;;5027699;28;20033;-74
2022/07/27 13:07:39;;;;;;;2.75;1.75;;;;;;;;;;5028136;28;20033;-75
2022/07/27 13:10:07;;;;;;;1.67;1.50;;;;;;;;;;5026273;28;20371;-75
2022/07/27 13:12:34;;;;;;;2.95;1.75;;;;;;;;;;5028647;28;20339;-74
2022/07/27 13:15:00;;;;;;;3.13;2.78;;;;;;;;;;5025374;28;20505;-74
2022/07/27 13:17:27;;;;;;;3.45;2.22;;;;;;;;;;5033791;28;20038;-75
2022/07/27 13:19:53;;;;;;;4.10;1.67;;;;;;;;;;5027761;28;20037;-75
2022/07/27 13:22:19;;;;;;;2.03;1.73;;;;;;;;;;5027353;28;20056;-74
2022/07/27 13:24:45;;;;;;;1.83;1.70;;;;;;;;;;5026736;28;20080;-75
2022/07/27 13:27:12;;;;;;;1.75;1.65;;;;;;;;;;5024179;28;20124;-76
2022/07/27 13:29:39;;;;;;;2.40;1.70;;;;;;;;;;5023169;28;20026;-75
2022/07/27 13:32:05;;;;;;;3.75;1.60;;;;;;;;;;5022314;28;20049;-74
2022/07/27 13:34:31;;;;;;;2.22;1.70;;;;;;;;;;5024020;28;20029;-74
2022/07/27 13:36:58;;;;;;;2.50;1.70;;;;;;;;;;5022083;28;20021;-74
2022/07/27 13:39:24;;;;;;;1.88;1.50;;;;;;;;;;5027461;28;20029;-75
2022/07/27 13:41:53;;;;;;;4.45;1.80;;;;;;;;;;5027075;28;20025;-75
2022/07/27 13:44:20;;;;;;;4.60;2.70;;;;;;;;;;5025688;28;20049;-75
2022/07/27 13:46:46;;;;;;;3.63;1.80;;;;;;;;;;5028398;28;20021;-74
2022/07/27 13:49:13;;;;;;;2.10;1.80;;;;;;;;;;5022213;28;20021;-76
2022/07/27 13:51:39;;;;;;;2.00;1.60;;;;;;;;;;5027927;28;20026;-74
2022/07/27 13:54:08;;;;;;;1.85;1.67;;;;;;;;;;5026266;28;20037;-74
2022/07/27 13:56:34;;;;;;;2.42;1.88;;;;;;;;;;5026215;28;20036;-75
2022/07/27 13:59:00;;;;;;;2.67;1.70;;;;;;;;;;5034259;28;20028;-74
2022/07/27 14:01:27;;;;;;;2.55;2.35;;;;;;;;;;5025078;28;20022;-73
2022/07/27 14:03:53;;;;;;;2.53;1.60;;;;;;;;;;5032060;28;20025;-74
2022/07/27 14:06:19;;;;;;;4.20;1.85;;;;;;;;;;5030389;28;20061;-76
2022/07/27 14:08:46;;;;;;;3.55;1.75;;;;;;;;;;5029377;28;20031;-74
2022/07/27 14:11:12;;;;;;;3.25;1.80;;;;;;;;;;5027514;28;20076;-75
2022/07/27 14:13:39;;;;;;;1.92;1.70;;;;;;;;;;5026548;28;20398;-75
2022/07/27 14:16:06;;;;;;;3.72;2.00;;;;;;;;;;5029035;28;20403;-74
2022/07/27 14:18:33;;;;;;;3.00;1.80;;;;;;;;;;5026109;28;20034;-74
2022/07/27 14:21:04;;;;;;;2.97;2.00;;;;;;;;;;5030006;28;20774;-74
2022/07/27 14:23:30;;;;;;;3.10;2.30;;;;;;;;;;5029404;28;20025;-74
2022/07/27 14:25:57;;;;;;;4.32;2.22;;;;;;;;;;5030862;28;20100;-74
2022/07/27 14:28:23;;;;;;;3.50;2.25;;;;;;;;;;5027468;28;20033;-74
2022/07/27 14:30:50;;;;;;;4.20;1.98;;;;;;;;;;5025597;28;20059;-75
2022/07/27 14:33:17;;;;;;;4.72;1.98;;;;;;;;;;5024358;28;20535;-75
2022/07/27 14:35:44;;;;;;;3.70;1.88;;;;;;;;;;5024368;28;20061;-73
2022/07/27 14:38:10;;;;;;;3.97;2.00;;;;;;;;;;5030213;28;20079;-75
2022/07/27 14:40:37;;;;;;;2.05;1.70;;;;;;;;;;5026941;28;20021;-75
2022/07/27 14:43:03;;;;;;;3.22;1.83;;;;;;;;;;5030627;28;20029;-77
2022/07/27 14:45:30;;;;;;;3.67;1.90;;;;;;;;;;5028732;28;20022;-75
2022/07/27 14:47:56;;;;;;;1.95;1.70;;;;;;;;;;5029086;28;20101;-75